createdAt,value
2018-12-03T00:00:12.567Z,2.10
2018-12-03T00:01:13.176Z,1.90
2018-12-03T00:02:12.517Z,1.70
2018-12-03T00:03:12.495Z,1.80
2018-12-03T00:04:12.511Z,1.50
2018-12-03T00:05:12.551Z,1.50
2018-12-03T00:06:12.457Z,1.60
2018-12-03T00:07:12.421Z,1.40
2018-12-03T00:08:12.400Z,1.50
2018-12-03T00:09:16.171Z,1.40
2018-12-03T00:10:12.389Z,1.50
2018-12-03T00:11:12.366Z,1.50
2018-12-03T00:12:12.335Z,1.30
2018-12-03T00:13:12.315Z,1.40
2018-12-03T00:14:12.291Z,1.40
2018-12-03T00:15:12.273Z,1.10
2018-12-03T00:16:12.260Z,1.20
2018-12-03T00:17:12.256Z,1.20
2018-12-03T00:18:12.224Z,1.40
2018-12-03T00:19:12.205Z,1.20
2018-12-03T00:20:12.187Z,1.20
2018-12-03T00:21:12.169Z,1.40
2018-12-03T00:22:12.171Z,1.20
2018-12-03T00:23:12.139Z,1.40
2018-12-03T00:24:12.109Z,1.50
2018-12-03T00:25:12.093Z,1.40
2018-12-03T00:26:12.074Z,1.50
2018-12-03T00:27:12.058Z,1.60
2018-12-03T00:28:12.056Z,1.50
2018-12-03T00:29:12.021Z,1.50
2018-12-03T00:30:12.004Z,1.50
2018-12-03T00:31:11.980Z,1.50
2018-12-03T00:32:11.985Z,1.70
2018-12-03T00:33:11.949Z,1.90
2018-12-03T00:34:11.935Z,1.80
2018-12-03T00:35:11.907Z,1.90
2018-12-03T00:36:11.892Z,2.20
2018-12-03T00:37:11.876Z,2.40
2018-12-03T00:38:11.878Z,2.20
2018-12-03T00:39:11.840Z,2.10
2018-12-03T00:40:11.819Z,2.40
2018-12-03T00:41:11.800Z,2.30
2018-12-03T00:42:12.754Z,2.40
2018-12-03T00:43:11.774Z,2.30
2018-12-03T00:44:11.756Z,2.40
2018-12-03T00:45:11.729Z,2.60
2018-12-03T00:46:11.726Z,2.50
2018-12-03T00:47:11.691Z,2.40
2018-12-03T00:48:11.689Z,2.70
2018-12-03T00:49:11.657Z,2.70
2018-12-03T00:50:11.640Z,2.60
2018-12-03T00:51:11.620Z,2.70
2018-12-03T00:52:11.620Z,2.70
2018-12-03T00:53:11.584Z,2.90
2018-12-03T00:54:11.566Z,2.60
2018-12-03T00:55:11.541Z,2.70
2018-12-03T00:56:11.530Z,2.90
2018-12-03T00:57:11.543Z,2.60
2018-12-03T00:58:11.495Z,2.70
2018-12-03T00:59:11.474Z,2.90
2018-12-03T01:00:11.453Z,2.70
2018-12-03T01:01:11.437Z,2.60
2018-12-03T01:02:11.419Z,2.80
2018-12-03T01:03:11.417Z,2.80
2018-12-03T01:04:11.383Z,3.00
2018-12-03T01:05:11.367Z,3.00
2018-12-03T01:06:11.347Z,3.20
2018-12-03T01:07:11.333Z,3.10
2018-12-03T01:08:11.333Z,2.70
2018-12-03T01:09:11.294Z,2.90
2018-12-03T01:11:53.661Z,3.10
2018-12-03T01:12:53.654Z,2.90
2018-12-03T01:13:53.619Z,2.80
2018-12-03T01:14:53.597Z,3.00
2018-12-03T01:15:53.575Z,2.70
2018-12-03T01:16:53.564Z,2.70
2018-12-03T01:17:53.542Z,2.60
2018-12-03T01:18:53.543Z,2.70
2018-12-03T01:19:53.512Z,2.70
2018-12-03T01:20:53.489Z,2.60
2018-12-03T01:21:53.473Z,2.80
2018-12-03T01:22:53.472Z,2.90
2018-12-03T01:23:53.441Z,2.60
2018-12-03T01:24:53.443Z,2.70
2018-12-03T01:25:53.417Z,2.60
2018-12-03T01:26:53.379Z,2.70
2018-12-03T01:27:53.369Z,2.70
2018-12-03T01:28:53.387Z,2.60
2018-12-03T01:29:53.331Z,2.70
2018-12-03T01:30:53.318Z,2.70
2018-12-03T01:31:53.291Z,2.50
2018-12-03T01:32:53.274Z,2.60
2018-12-03T01:33:53.258Z,2.70
2018-12-03T01:34:53.255Z,2.60
2018-12-03T01:35:53.219Z,2.50
2018-12-03T01:36:53.198Z,2.50
2018-12-03T01:37:53.188Z,2.70
2018-12-03T01:38:53.170Z,2.60
2018-12-03T01:39:53.168Z,2.60
2018-12-03T01:40:53.127Z,2.70
2018-12-03T01:41:53.114Z,2.50
2018-12-03T01:42:53.092Z,2.90
2018-12-03T01:43:53.113Z,2.70
2018-12-03T01:44:53.057Z,2.60
2018-12-03T01:45:53.073Z,2.50
2018-12-03T01:46:53.025Z,2.60
2018-12-03T01:47:53.007Z,2.30
2018-12-03T01:48:52.985Z,2.70
2018-12-03T01:49:52.975Z,2.90
2018-12-03T01:50:52.967Z,2.90
2018-12-03T01:51:52.933Z,2.90
2018-12-03T01:52:52.912Z,2.70
2018-12-03T01:53:52.898Z,2.80
2018-12-03T01:56:35.177Z,3.10
2018-12-03T01:57:35.145Z,2.60
2018-12-03T01:58:35.132Z,3.10
2018-12-03T01:59:35.227Z,3.20
2018-12-03T02:00:35.111Z,3.20
2018-12-03T02:01:35.070Z,3.10
2018-12-03T02:02:35.061Z,3.50
2018-12-03T02:03:35.031Z,3.30
2018-12-03T02:04:35.018Z,3.00
2018-12-03T02:05:35.002Z,3.30
2018-12-03T02:06:35.000Z,3.10
2018-12-03T02:07:34.977Z,3.10
2018-12-03T02:08:34.943Z,3.30
2018-12-03T02:09:34.931Z,2.90
2018-12-03T02:10:34.909Z,2.80
2018-12-03T02:11:34.901Z,3.00
2018-12-03T02:12:34.906Z,2.70
2018-12-03T02:13:34.866Z,3.00
2018-12-03T02:14:34.841Z,2.60
2018-12-03T02:15:34.822Z,2.70
2018-12-03T02:16:34.804Z,2.80
2018-12-03T02:17:34.785Z,2.40
2018-12-03T02:18:34.785Z,2.70
2018-12-03T02:19:34.750Z,2.80
2018-12-03T02:20:34.734Z,2.70
2018-12-03T02:21:34.715Z,2.50
2018-12-03T02:22:34.697Z,2.70
2018-12-03T02:23:34.693Z,2.80
2018-12-03T02:24:34.666Z,2.60
2018-12-03T02:25:34.644Z,2.70
2018-12-03T02:26:34.625Z,2.80
2018-12-03T02:27:34.627Z,2.60
2018-12-03T02:28:34.590Z,2.50
2018-12-03T02:29:34.590Z,2.30
2018-12-03T02:30:34.555Z,2.60
2018-12-03T02:31:34.554Z,2.50
2018-12-03T02:32:34.520Z,2.70
2018-12-03T02:33:34.501Z,2.70
2018-12-03T02:34:34.500Z,2.50
2018-12-03T02:35:34.465Z,2.40
2018-12-03T02:36:34.445Z,2.80
2018-12-03T02:37:34.430Z,2.70
2018-12-03T02:38:34.413Z,3.00
2018-12-03T02:39:34.411Z,2.90
2018-12-03T02:40:34.375Z,2.90
2018-12-03T02:43:16.680Z,3.10
2018-12-03T02:44:16.648Z,3.30
2018-12-03T02:45:16.673Z,3.20
2018-12-03T02:46:16.619Z,3.70
2018-12-03T02:47:16.614Z,3.60
2018-12-03T02:48:16.599Z,3.50
2018-12-03T02:49:16.565Z,3.60
2018-12-03T02:50:16.540Z,3.90
2018-12-03T02:51:16.545Z,3.80
2018-12-03T02:52:16.517Z,3.80
2018-12-03T02:53:16.488Z,3.40
2018-12-03T02:54:16.476Z,3.50
2018-12-03T02:55:16.473Z,3.40
2018-12-03T02:56:16.439Z,3.50
2018-12-03T02:57:16.423Z,3.40
2018-12-03T02:58:16.401Z,3.50
2018-12-03T02:59:16.400Z,3.20
2018-12-03T03:00:16.367Z,3.80
2018-12-03T03:01:16.370Z,3.20
2018-12-03T03:02:16.330Z,3.20
2018-12-03T03:03:16.315Z,3.50
2018-12-03T03:04:16.292Z,3.50
2018-12-03T03:05:16.275Z,3.40
2018-12-03T03:06:16.272Z,3.00
2018-12-03T03:07:16.237Z,3.00
2018-12-03T03:08:16.224Z,3.60
2018-12-03T03:09:16.204Z,3.30
2018-12-03T03:10:16.194Z,3.70
2018-12-03T03:11:16.183Z,3.60
2018-12-03T03:12:16.150Z,3.50
2018-12-03T03:13:16.125Z,3.60
2018-12-03T03:14:16.113Z,3.90
2018-12-03T03:15:16.114Z,3.70
2018-12-03T03:16:16.095Z,4.20
2018-12-03T03:17:16.058Z,4.20
2018-12-03T03:18:16.037Z,4.50
2018-12-03T03:19:16.022Z,4.40
2018-12-03T03:20:16.015Z,4.70
2018-12-03T03:21:15.994Z,4.80
2018-12-03T03:22:15.989Z,4.90
2018-12-03T03:23:15.955Z,4.80
2018-12-03T03:24:15.948Z,5.00
2018-12-03T03:25:15.914Z,4.90
2018-12-03T03:26:15.903Z,4.90
2018-12-03T03:27:15.880Z,4.80
2018-12-03T03:28:15.862Z,5.00
2018-12-03T03:29:15.863Z,4.70
2018-12-03T03:30:15.830Z,4.60
2018-12-03T03:31:15.807Z,4.80
2018-12-03T03:32:15.790Z,4.90
2018-12-03T03:33:15.771Z,4.40
2018-12-03T03:34:15.761Z,4.30
2018-12-03T03:35:15.730Z,4.40
2018-12-03T03:36:15.717Z,4.30
2018-12-03T03:37:15.698Z,3.90
2018-12-03T03:38:15.695Z,4.20
2018-12-03T03:39:15.661Z,4.20
2018-12-03T03:40:15.643Z,4.10
2018-12-03T03:41:15.622Z,4.00
2018-12-03T03:42:15.606Z,4.10
2018-12-03T03:43:15.605Z,4.10
2018-12-03T03:44:15.571Z,3.70
2018-12-03T03:45:15.551Z,3.90
2018-12-03T03:46:15.530Z,3.90
2018-12-03T03:47:15.522Z,3.60
2018-12-03T03:48:15.517Z,3.50
2018-12-03T03:49:15.482Z,3.60
2018-12-03T03:50:15.461Z,3.60
2018-12-03T03:51:15.447Z,3.60
2018-12-03T03:52:15.429Z,3.40
2018-12-03T03:53:15.423Z,3.40
2018-12-03T03:54:15.411Z,3.40
2018-12-03T03:55:15.372Z,3.50
2018-12-03T03:56:15.355Z,3.20
2018-12-03T03:57:15.337Z,3.10
2018-12-03T03:58:15.321Z,3.00
2018-12-03T03:59:15.298Z,3.20
2018-12-03T04:00:15.306Z,2.90
2018-12-03T04:01:15.262Z,2.70
2018-12-03T04:02:15.246Z,2.60
2018-12-03T04:03:15.228Z,2.50
2018-12-03T04:04:15.210Z,2.50
2018-12-03T04:05:15.211Z,2.40
2018-12-03T04:06:15.177Z,2.60
2018-12-03T04:07:15.156Z,2.20
2018-12-03T04:08:15.138Z,2.20
2018-12-03T04:09:15.119Z,2.20
2018-12-03T04:10:15.126Z,2.20
2018-12-03T04:11:15.082Z,2.20
2018-12-03T04:12:15.078Z,2.40
2018-12-03T04:13:15.062Z,2.20
2018-12-03T04:14:15.044Z,2.20
2018-12-03T04:15:15.019Z,2.10
2018-12-03T04:16:14.986Z,2.50
2018-12-03T04:17:14.975Z,2.10
2018-12-03T04:18:14.971Z,2.00
2018-12-03T04:19:14.939Z,2.00
2018-12-03T04:20:14.935Z,2.10
2018-12-03T04:21:14.902Z,2.10
2018-12-03T04:22:14.883Z,2.10
2018-12-03T04:23:14.865Z,2.20
2018-12-03T04:24:14.869Z,2.00
2018-12-03T04:25:14.846Z,1.90
2018-12-03T04:26:14.810Z,1.90
2018-12-03T04:27:14.789Z,2.10
2018-12-03T04:28:14.775Z,2.10
2018-12-03T04:29:14.762Z,2.10
2018-12-03T04:30:14.738Z,2.20
2018-12-03T04:31:14.738Z,1.80
2018-12-03T04:32:14.716Z,1.80
2018-12-03T04:33:14.682Z,1.90
2018-12-03T04:34:14.666Z,1.70
2018-12-03T04:35:14.649Z,1.60
2018-12-03T04:36:14.652Z,1.80
2018-12-03T04:37:14.610Z,1.70
2018-12-03T04:38:14.594Z,1.50
2018-12-03T04:39:14.573Z,1.70
2018-12-03T04:40:14.564Z,1.60
2018-12-03T04:41:14.559Z,1.60
2018-12-03T04:42:14.522Z,1.60
2018-12-03T04:43:14.507Z,1.50
2018-12-03T04:44:14.487Z,1.80
2018-12-03T04:45:14.471Z,1.70
2018-12-03T04:46:14.452Z,1.70
2018-12-03T04:47:14.457Z,1.80
2018-12-03T04:48:14.416Z,1.80
2018-12-03T04:49:14.401Z,1.80
2018-12-03T04:50:14.377Z,1.80
2018-12-03T04:51:14.361Z,1.80
2018-12-03T04:52:14.363Z,1.80
2018-12-03T04:53:14.349Z,1.90
2018-12-03T04:54:14.305Z,1.80
2018-12-03T04:55:14.292Z,1.80
2018-12-03T04:56:14.281Z,1.90
2018-12-03T04:57:14.257Z,1.90
2018-12-03T04:58:14.255Z,1.80
2018-12-03T04:59:14.220Z,1.90
2018-12-03T05:00:14.204Z,1.80
2018-12-03T05:01:14.194Z,2.00
2018-12-03T05:02:14.168Z,1.90
2018-12-03T05:03:14.178Z,1.60
2018-12-03T05:04:14.129Z,1.50
2018-12-03T05:05:14.109Z,1.80
2018-12-03T05:06:14.098Z,1.50
2018-12-03T05:07:14.079Z,1.60
2018-12-03T05:08:14.077Z,1.70
2018-12-03T05:09:14.043Z,1.70
2018-12-03T05:10:14.021Z,1.80
2018-12-03T05:11:14.005Z,1.80
2018-12-03T05:12:13.991Z,1.70
2018-12-03T05:13:13.972Z,1.60
2018-12-03T05:14:13.973Z,1.60
2018-12-03T05:15:13.933Z,1.60
2018-12-03T05:16:13.934Z,1.70
2018-12-03T05:17:13.901Z,1.70
2018-12-03T05:18:13.915Z,1.60
2018-12-03T05:19:13.865Z,1.70
2018-12-03T05:20:13.859Z,1.70
2018-12-03T05:21:13.829Z,1.50
2018-12-03T05:22:13.837Z,1.70
2018-12-03T05:23:13.799Z,1.80
2018-12-03T05:24:13.806Z,1.60
2018-12-03T05:25:18.907Z,1.80
2018-12-03T05:26:13.741Z,1.80
2018-12-03T05:27:13.719Z,1.70
2018-12-03T05:28:13.704Z,1.80
2018-12-03T05:29:13.685Z,1.80
2018-12-03T05:30:13.675Z,1.80
2018-12-03T05:31:13.647Z,1.60
2018-12-03T05:32:13.633Z,1.60
2018-12-03T05:33:13.622Z,1.80
2018-12-03T05:34:13.622Z,1.80
2018-12-03T05:35:13.572Z,1.70
2018-12-03T05:36:13.563Z,1.80
2018-12-03T05:37:13.544Z,1.70
2018-12-03T05:38:13.526Z,1.70
2018-12-03T05:39:13.548Z,1.70
2018-12-03T05:40:13.501Z,1.50
2018-12-03T05:41:13.492Z,1.50
2018-12-03T05:42:13.448Z,1.70
2018-12-03T05:43:13.435Z,1.80
2018-12-03T05:44:13.416Z,1.60
2018-12-03T05:45:13.402Z,1.60
2018-12-03T05:46:13.381Z,1.60
2018-12-03T05:47:13.391Z,1.60
2018-12-03T05:48:13.346Z,1.50
2018-12-03T05:49:13.323Z,1.70
2018-12-03T05:50:13.335Z,1.60
2018-12-03T05:51:13.344Z,1.60
2018-12-03T05:52:13.267Z,1.70
2018-12-03T05:53:13.252Z,1.50
2018-12-03T05:54:13.234Z,1.70
2018-12-03T05:55:13.218Z,1.50
2018-12-03T05:56:13.225Z,1.50
2018-12-03T05:57:13.184Z,1.70
2018-12-03T05:58:13.160Z,1.60
2018-12-03T05:59:13.151Z,1.60
2018-12-03T06:00:13.132Z,1.40
2018-12-03T06:01:13.113Z,1.60
2018-12-03T06:02:13.110Z,1.70
2018-12-03T06:03:13.073Z,1.70
2018-12-03T06:04:13.070Z,1.60
2018-12-03T06:05:13.043Z,1.70
2018-12-03T06:06:13.024Z,1.90
2018-12-03T06:07:13.027Z,1.60
2018-12-03T06:08:13.006Z,1.90
2018-12-03T06:09:12.967Z,2.00
2018-12-03T06:10:12.958Z,2.10
2018-12-03T06:11:12.932Z,1.90
2018-12-03T06:12:12.914Z,1.90
2018-12-03T06:13:12.914Z,2.10
2018-12-03T06:14:12.878Z,2.00
2018-12-03T06:15:12.858Z,2.20
2018-12-03T06:16:12.848Z,2.30
2018-12-03T06:17:12.817Z,2.10
2018-12-03T06:18:12.820Z,2.00
2018-12-03T06:19:12.800Z,2.10
2018-12-03T06:20:12.774Z,2.20
2018-12-03T06:21:12.748Z,1.80
2018-12-03T06:22:12.726Z,2.20
2018-12-03T06:23:12.709Z,2.10
2018-12-03T06:24:12.708Z,2.30
2018-12-03T06:25:12.675Z,2.10
2018-12-03T06:26:12.659Z,2.20
2018-12-03T06:27:12.637Z,2.00
2018-12-03T06:28:12.619Z,2.10
2018-12-03T06:29:12.623Z,2.00
2018-12-03T06:30:13.253Z,2.00
2018-12-03T06:31:12.564Z,2.10
2018-12-03T06:32:12.547Z,2.10
2018-12-03T06:33:12.528Z,2.30
2018-12-03T06:34:12.525Z,2.20
2018-12-03T06:35:12.490Z,2.10
2018-12-03T06:36:12.486Z,2.40
2018-12-03T06:37:12.459Z,2.00
2018-12-03T06:38:15.371Z,2.10
2018-12-03T06:39:12.421Z,2.00
2018-12-03T06:40:12.398Z,1.90
2018-12-03T06:41:12.398Z,1.70
2018-12-03T06:42:12.364Z,1.70
2018-12-03T06:43:12.353Z,1.80
2018-12-03T06:44:12.320Z,1.80
2018-12-03T06:45:12.304Z,1.90
2018-12-03T06:46:12.303Z,1.70
2018-12-03T06:47:12.271Z,1.60
2018-12-03T06:48:12.246Z,1.50
2018-12-03T06:49:12.231Z,1.50
2018-12-03T06:50:12.216Z,1.80
2018-12-03T06:51:12.216Z,1.60
2018-12-03T06:52:12.179Z,1.60
2018-12-03T06:53:12.187Z,1.70
2018-12-03T06:54:12.158Z,1.80
2018-12-03T06:55:12.123Z,1.40
2018-12-03T06:56:12.121Z,1.40
2018-12-03T06:57:12.085Z,1.50
2018-12-03T06:58:12.101Z,1.50
2018-12-03T06:59:12.052Z,1.50
2018-12-03T07:00:12.029Z,1.50
2018-12-03T07:01:12.041Z,1.50
2018-12-03T07:02:11.995Z,1.70
2018-12-03T07:03:11.981Z,1.50
2018-12-03T07:04:11.959Z,1.40
2018-12-03T07:05:11.943Z,1.70
2018-12-03T07:06:11.932Z,1.90
2018-12-03T07:07:11.920Z,1.90
2018-12-03T07:08:11.881Z,1.90
2018-12-03T07:09:11.869Z,1.80
2018-12-03T07:10:11.846Z,2.00
2018-12-03T07:11:11.849Z,2.00
2018-12-03T07:12:11.831Z,2.10
2018-12-03T07:13:11.793Z,2.40
2018-12-03T07:14:11.776Z,2.50
2018-12-03T07:15:11.757Z,2.40
2018-12-03T07:16:11.740Z,2.90
2018-12-03T07:17:12.851Z,2.60
2018-12-03T07:18:11.726Z,2.30
2018-12-03T07:19:11.694Z,2.80
2018-12-03T07:20:11.675Z,2.80
2018-12-03T07:21:11.672Z,2.80
2018-12-03T07:22:11.634Z,2.60
2018-12-03T07:23:11.670Z,2.60
2018-12-03T07:24:11.591Z,2.30
2018-12-03T07:25:11.572Z,2.90
2018-12-03T07:26:11.554Z,2.50
2018-12-03T07:27:11.562Z,2.70
2018-12-03T07:28:11.520Z,2.70
2018-12-03T07:30:53.735Z,3.20
2018-12-03T07:31:53.714Z,3.00
2018-12-03T07:32:53.719Z,3.00
2018-12-03T07:33:53.675Z,3.10
2018-12-03T07:34:53.668Z,2.80
2018-12-03T07:35:53.641Z,3.20
2018-12-03T07:36:53.622Z,3.20
2018-12-03T07:37:53.618Z,3.10
2018-12-03T07:38:53.582Z,2.50
2018-12-03T07:39:53.570Z,3.10
2018-12-03T07:40:53.555Z,2.60
2018-12-03T07:41:53.556Z,3.00
2018-12-03T07:42:53.524Z,2.90
2018-12-03T07:43:53.490Z,3.10
2018-12-03T07:44:53.471Z,3.00
2018-12-03T07:45:53.480Z,2.80
2018-12-03T07:46:53.442Z,3.30
2018-12-03T07:47:53.477Z,3.20
2018-12-03T07:48:53.429Z,3.20
2018-12-03T07:49:53.393Z,3.00
2018-12-03T07:50:53.367Z,2.90
2018-12-03T07:51:53.351Z,2.90
2018-12-03T07:52:53.331Z,3.20
2018-12-03T07:53:53.310Z,3.20
2018-12-03T07:54:53.310Z,2.90
2018-12-03T07:55:53.276Z,2.90
2018-12-03T07:56:53.846Z,3.10
2018-12-03T07:57:53.238Z,3.60
2018-12-03T07:58:53.221Z,3.10
2018-12-03T07:59:53.229Z,3.40
2018-12-03T08:00:53.202Z,3.00
2018-12-03T08:01:53.850Z,3.60
2018-12-03T08:02:53.179Z,3.30
2018-12-03T08:03:53.371Z,3.20
2018-12-03T08:04:53.367Z,3.20
2018-12-03T08:05:53.848Z,3.10
2018-12-03T08:06:53.234Z,3.20
2018-12-03T08:07:53.219Z,2.90
2018-12-03T08:08:53.072Z,2.90
2018-12-03T08:09:53.087Z,2.80
2018-12-03T08:10:53.777Z,3.20
2018-12-03T08:11:52.981Z,3.20
2018-12-03T08:12:52.960Z,2.90
2018-12-03T08:13:52.953Z,3.00
2018-12-03T08:14:52.954Z,3.10
2018-12-03T08:15:52.929Z,3.20
2018-12-03T08:16:52.913Z,3.30
2018-12-03T08:17:52.878Z,3.20
2018-12-03T08:18:52.862Z,3.30
2018-12-03T08:19:56.495Z,3.00
2018-12-03T08:20:52.817Z,3.40
2018-12-03T08:21:52.801Z,3.10
2018-12-03T08:22:52.796Z,3.50
2018-12-03T08:23:52.768Z,3.10
2018-12-03T08:24:52.751Z,3.10
2018-12-03T08:25:52.742Z,3.20
2018-12-03T08:26:52.731Z,3.10
2018-12-03T08:27:52.694Z,3.40
2018-12-03T08:28:52.674Z,3.10
2018-12-03T08:29:52.657Z,3.40
2018-12-03T08:30:52.673Z,3.30
2018-12-03T08:31:52.643Z,3.50
2018-12-03T08:32:52.616Z,3.30
2018-12-03T08:33:52.583Z,3.30
2018-12-03T08:34:52.567Z,3.00
2018-12-03T08:35:52.546Z,3.00
2018-12-03T08:36:52.539Z,3.50
2018-12-03T08:37:52.536Z,3.40
2018-12-03T08:38:52.493Z,3.30
2018-12-03T08:39:52.482Z,3.20
2018-12-03T08:40:52.458Z,3.20
2018-12-03T08:41:52.437Z,3.50
2018-12-03T08:42:52.422Z,3.50
2018-12-03T08:43:52.419Z,3.00
2018-12-03T08:44:52.384Z,3.20
2018-12-03T08:45:52.391Z,3.30
2018-12-03T08:46:52.350Z,3.30
2018-12-03T08:47:52.326Z,3.50
2018-12-03T08:48:52.329Z,3.70
2018-12-03T08:49:52.300Z,3.70
2018-12-03T08:50:52.309Z,3.40
2018-12-03T08:51:52.256Z,3.50
2018-12-03T08:52:52.237Z,3.60
2018-12-03T08:53:52.221Z,3.50
2018-12-03T08:54:52.203Z,3.40
2018-12-03T08:55:52.205Z,3.60
2018-12-03T08:56:52.163Z,3.30
2018-12-03T08:57:52.151Z,3.50
2018-12-03T08:58:52.130Z,3.50
2018-12-03T08:59:52.112Z,3.60
2018-12-03T09:00:52.112Z,3.80
2018-12-03T09:01:52.110Z,4.00
2018-12-03T09:02:52.069Z,3.90
2018-12-03T09:03:52.051Z,3.80
2018-12-03T09:04:52.050Z,3.70
2018-12-03T09:05:52.013Z,3.70
2018-12-03T09:06:51.991Z,3.40
2018-12-03T09:07:51.972Z,3.50
2018-12-03T09:08:51.959Z,3.80
2018-12-03T09:09:51.959Z,3.80
2018-12-03T09:10:51.936Z,3.70
2018-12-03T09:11:51.911Z,3.30
2018-12-03T09:12:51.888Z,3.70
2018-12-03T09:13:51.873Z,3.70
2018-12-03T09:14:51.848Z,3.50
2018-12-03T09:15:51.851Z,3.70
2018-12-03T09:16:51.815Z,3.80
2018-12-03T09:17:51.798Z,3.60
2018-12-03T09:18:51.778Z,3.50
2018-12-03T09:19:51.760Z,3.70
2018-12-03T09:20:51.746Z,3.60
2018-12-03T09:21:51.746Z,3.80
2018-12-03T09:22:51.724Z,3.50
2018-12-03T09:23:51.714Z,4.10
2018-12-03T09:24:51.676Z,3.70
2018-12-03T09:25:51.659Z,3.50
2018-12-03T09:26:51.641Z,4.10
2018-12-03T09:27:51.622Z,4.00
2018-12-03T09:28:51.630Z,3.50
2018-12-03T09:29:51.590Z,3.80
2018-12-03T09:30:51.569Z,4.00
2018-12-03T09:31:51.569Z,3.90
2018-12-03T09:32:51.538Z,4.20
2018-12-03T09:33:51.533Z,4.00
2018-12-03T09:34:51.501Z,3.90
2018-12-03T09:35:51.487Z,4.10
2018-12-03T09:36:51.481Z,3.80
2018-12-03T09:37:51.452Z,4.20
2018-12-03T09:38:51.448Z,4.00
2018-12-03T09:39:51.416Z,4.30
2018-12-03T09:40:51.398Z,4.10
2018-12-03T09:41:51.400Z,3.90
2018-12-03T09:42:51.379Z,4.20
2018-12-03T09:43:51.362Z,3.90
2018-12-03T09:44:51.327Z,4.50
2018-12-03T09:45:51.314Z,3.80
2018-12-03T09:46:51.296Z,4.20
2018-12-03T09:47:54.250Z,3.90
2018-12-03T09:48:51.277Z,4.20
2018-12-03T09:49:51.264Z,4.00
2018-12-03T09:50:51.221Z,4.10
2018-12-03T09:51:51.210Z,4.30
2018-12-03T09:52:51.194Z,4.50
2018-12-03T09:53:51.178Z,4.10
2018-12-03T09:54:51.155Z,4.00
2018-12-03T09:55:51.151Z,4.30
2018-12-03T09:56:51.140Z,4.10
2018-12-03T09:57:51.100Z,4.30
2018-12-03T09:58:51.084Z,4.20
2018-12-03T09:59:51.069Z,4.00
2018-12-03T10:00:51.070Z,4.10
2018-12-03T10:01:51.033Z,4.00
2018-12-03T10:02:51.009Z,4.10
2018-12-03T10:03:51.001Z,4.00
2018-12-03T10:04:50.979Z,3.90
2018-12-03T10:05:50.966Z,4.50
2018-12-03T10:06:50.962Z,4.10
2018-12-03T10:07:50.930Z,3.90
2018-12-03T10:08:50.919Z,4.20
2018-12-03T10:09:50.896Z,3.90
2018-12-03T10:10:50.884Z,3.80
2018-12-03T10:11:50.860Z,3.70
2018-12-03T10:12:50.855Z,3.90
2018-12-03T10:13:50.855Z,3.90
2018-12-03T10:14:50.808Z,4.00
2018-12-03T10:15:50.803Z,4.00
2018-12-03T10:16:50.774Z,3.90
2018-12-03T10:17:50.773Z,4.00
2018-12-03T10:18:50.756Z,3.80
2018-12-03T10:19:50.738Z,3.90
2018-12-03T10:20:50.707Z,3.70
2018-12-03T10:21:50.711Z,3.60
2018-12-03T10:22:50.671Z,3.60
2018-12-03T10:23:50.664Z,3.70
2018-12-03T10:24:50.636Z,3.90
2018-12-03T10:25:50.636Z,4.00
2018-12-03T10:26:50.621Z,3.90
2018-12-03T10:27:50.584Z,4.00
2018-12-03T10:28:50.566Z,3.70
2018-12-03T10:29:50.573Z,4.10
2018-12-03T10:30:50.566Z,3.80
2018-12-03T10:31:50.515Z,3.80
2018-12-03T10:32:50.497Z,3.70
2018-12-03T10:33:50.483Z,3.70
2018-12-03T10:34:50.485Z,3.70
2018-12-03T10:35:50.444Z,3.60
2018-12-03T10:36:50.447Z,3.50
2018-12-03T10:37:50.413Z,3.70
2018-12-03T10:38:50.394Z,3.70
2018-12-03T10:39:50.383Z,3.70
2018-12-03T10:40:50.384Z,3.80
2018-12-03T10:41:50.362Z,3.90
2018-12-03T10:42:50.329Z,3.80
2018-12-03T10:43:50.313Z,4.00
2018-12-03T10:44:50.296Z,3.90
2018-12-03T10:45:50.297Z,3.80
2018-12-03T10:46:50.276Z,3.60
2018-12-03T10:47:50.242Z,4.30
2018-12-03T10:48:50.253Z,3.70
2018-12-03T10:49:50.218Z,3.70
2018-12-03T10:50:50.200Z,4.40
2018-12-03T10:51:50.192Z,4.30
2018-12-03T10:52:50.167Z,4.30
2018-12-03T10:53:50.145Z,3.90
2018-12-03T10:54:50.125Z,4.20
2018-12-03T10:55:50.108Z,4.10
2018-12-03T10:56:50.109Z,4.10
2018-12-03T10:57:50.080Z,4.10
2018-12-03T10:58:50.059Z,3.80
2018-12-03T10:59:50.045Z,4.00
2018-12-03T11:00:50.025Z,4.10
2018-12-03T11:01:50.025Z,4.00
2018-12-03T11:02:50.012Z,4.20
2018-12-03T11:03:49.976Z,3.80
2018-12-03T11:04:49.954Z,3.70
2018-12-03T11:05:49.938Z,4.30
2018-12-03T11:06:49.924Z,3.90
2018-12-03T11:07:49.943Z,4.30
2018-12-03T11:08:49.887Z,3.90
2018-12-03T11:09:49.875Z,4.30
2018-12-03T11:10:49.857Z,4.10
2018-12-03T11:11:49.902Z,3.80
2018-12-03T11:12:49.850Z,4.00
2018-12-03T11:13:49.805Z,3.80
2018-12-03T11:14:49.789Z,3.60
2018-12-03T11:15:49.778Z,3.80
2018-12-03T11:16:49.755Z,4.20
2018-12-03T11:17:49.740Z,3.80
2018-12-03T11:18:49.735Z,3.70
2018-12-03T11:19:49.701Z,3.60
2018-12-03T11:20:49.689Z,3.90
2018-12-03T11:21:49.671Z,3.80
2018-12-03T11:22:49.676Z,3.60
2018-12-03T11:23:49.668Z,3.30
2018-12-03T11:24:49.623Z,3.50
2018-12-03T11:25:49.601Z,3.80
2018-12-03T11:26:49.593Z,3.80
2018-12-03T11:27:49.566Z,3.60
2018-12-03T11:28:49.581Z,3.60
2018-12-03T11:29:49.555Z,3.50
2018-12-03T11:30:50.346Z,3.60
2018-12-03T11:31:49.504Z,3.50
2018-12-03T11:32:49.486Z,3.40
2018-12-03T11:33:49.501Z,3.60
2018-12-03T11:34:49.470Z,3.60
2018-12-03T11:35:49.435Z,3.70
2018-12-03T11:36:49.425Z,3.50
2018-12-03T11:37:49.407Z,3.60
2018-12-03T11:38:49.396Z,3.70
2018-12-03T11:39:49.421Z,3.70
2018-12-03T11:40:49.359Z,3.50
2018-12-03T11:41:49.343Z,3.90
2018-12-03T11:42:49.327Z,3.40
2018-12-03T11:43:49.303Z,3.80
2018-12-03T11:44:49.309Z,3.90
2018-12-03T11:45:49.277Z,3.80
2018-12-03T11:46:49.268Z,3.60
2018-12-03T11:47:49.244Z,3.50
2018-12-03T11:48:49.237Z,3.80
2018-12-03T11:49:49.226Z,4.00
2018-12-03T11:50:49.216Z,3.40
2018-12-03T11:51:49.173Z,3.80
2018-12-03T11:52:49.158Z,3.70
2018-12-03T11:53:49.138Z,3.40
2018-12-03T11:54:49.146Z,3.40
2018-12-03T11:55:49.107Z,3.50
2018-12-03T11:56:49.114Z,3.40
2018-12-03T11:57:49.075Z,3.20
2018-12-03T11:58:49.060Z,3.50
2018-12-03T11:59:49.065Z,3.80
2018-12-03T12:00:49.033Z,3.40
2018-12-03T12:01:49.025Z,3.30
2018-12-03T12:02:48.995Z,3.90
2018-12-03T12:03:48.978Z,3.60
2018-12-03T12:04:48.966Z,3.40
2018-12-03T12:05:48.948Z,3.60
2018-12-03T12:06:48.948Z,3.60
2018-12-03T12:07:48.910Z,3.40
2018-12-03T12:08:48.893Z,3.70
2018-12-03T12:09:48.877Z,3.30
2018-12-03T12:10:48.862Z,3.60
2018-12-03T12:11:48.867Z,3.40
2018-12-03T12:12:48.828Z,3.90
2018-12-03T12:13:48.818Z,3.60
2018-12-03T12:14:48.797Z,3.60
2018-12-03T12:15:48.782Z,3.40
2018-12-03T12:16:48.781Z,3.30
2018-12-03T12:17:48.743Z,3.50
2018-12-03T12:18:48.734Z,3.50
2018-12-03T12:19:48.715Z,3.40
2018-12-03T12:20:48.697Z,3.50
2018-12-03T12:21:48.696Z,3.50
2018-12-03T12:22:48.683Z,3.90
2018-12-03T12:23:48.658Z,3.60
2018-12-03T12:24:48.637Z,3.30
2018-12-03T12:25:48.641Z,3.50
2018-12-03T12:26:48.644Z,3.80
2018-12-03T12:27:48.690Z,3.60
2018-12-03T12:28:48.679Z,3.60
2018-12-03T12:29:49.408Z,3.50
2018-12-03T12:30:48.623Z,3.30
2018-12-03T12:31:48.610Z,3.40
2018-12-03T12:32:48.615Z,3.70
2018-12-03T12:33:48.671Z,3.60
2018-12-03T12:34:48.643Z,3.60
2018-12-03T12:35:48.644Z,3.50
2018-12-03T12:36:48.647Z,3.30
2018-12-03T12:37:48.434Z,3.40
2018-12-03T12:38:48.405Z,3.70
2018-12-03T12:39:48.405Z,3.10
2018-12-03T12:40:48.370Z,3.00
2018-12-03T12:41:48.359Z,3.10
2018-12-03T12:42:48.342Z,3.50
2018-12-03T12:43:48.331Z,3.30
2018-12-03T12:44:48.302Z,3.70
2018-12-03T12:45:48.299Z,3.50
2018-12-03T12:46:48.281Z,3.80
2018-12-03T12:47:48.251Z,3.60
2018-12-03T12:48:48.232Z,3.30
2018-12-03T12:49:48.240Z,3.20
2018-12-03T12:50:48.222Z,3.60
2018-12-03T12:51:51.561Z,3.70
2018-12-03T12:52:48.170Z,3.60
2018-12-03T12:53:48.145Z,3.30
2018-12-03T12:54:48.156Z,3.30
2018-12-03T12:55:48.142Z,3.10
2018-12-03T12:56:48.097Z,3.40
2018-12-03T12:57:48.104Z,3.20
2018-12-03T12:58:48.079Z,3.20
2018-12-03T12:59:48.843Z,3.00
2018-12-03T13:00:48.036Z,2.80
2018-12-03T13:01:48.035Z,3.00
2018-12-03T13:02:48.010Z,3.30
2018-12-03T13:03:48.003Z,3.40
2018-12-03T13:04:47.984Z,3.10
2018-12-03T13:05:47.965Z,3.40
2018-12-03T13:06:47.953Z,3.20
2018-12-03T13:07:47.915Z,3.30
2018-12-03T13:08:47.903Z,3.40
2018-12-03T13:09:47.884Z,3.70
2018-12-03T13:10:47.876Z,3.10
2018-12-03T13:11:47.875Z,3.30
2018-12-03T13:12:47.834Z,3.30
2018-12-03T13:13:47.813Z,3.20
2018-12-03T13:14:47.817Z,2.90
2018-12-03T13:15:47.778Z,3.20
2018-12-03T13:16:47.786Z,2.80
2018-12-03T13:17:47.776Z,3.00
2018-12-03T13:18:47.731Z,3.20
2018-12-03T13:19:49.917Z,2.90
2018-12-03T13:20:47.695Z,3.10
2018-12-03T13:21:47.681Z,3.00
2018-12-03T13:22:47.670Z,3.00
2018-12-03T13:23:47.673Z,3.00
2018-12-03T13:24:47.638Z,3.10